Time;durP1;ratioP1;P1;durP2;ratioP2;P2;SDS_P1;SDS_P2;PMS_P1;PMS_P2;Temp;Humidity;BMP_temperature;BMP_pressure;BME280_temperature;BME280_humidity;BME280_pressure;Samples;Min_cycle;Max_cycle;Signal;HPM_P1;HPM_P2
2023/05/27 00:02:03;;;;;;;13.60;6.30;;;15.50;80.40;;;;;;5018041;28;20386;-76
2023/05/27 00:04:28;;;;;;;9.07;6.03;;;15.40;80.50;;;;;;5034407;28;20037;-74
2023/05/27 00:06:54;;;;;;;11.95;6.47;;;15.40;80.90;;;;;;5035639;28;20041;-75
2023/05/27 00:09:20;;;;;;;10.18;6.03;;;15.30;81.20;;;;;;5034904;28;20037;-75
2023/05/27 00:11:46;;;;;;;9.60;6.28;;;15.20;81.70;;;;;;5035533;28;20057;-75
2023/05/27 00:14:11;;;;;;;7.05;5.55;;;15.20;82.20;;;;;;5035062;28;20041;-75
2023/05/27 00:16:37;;;;;;;8.95;6.57;;;15.10;82.50;;;;;;5036258;28;20017;-76
2023/05/27 00:19:03;;;;;;;6.97;5.13;;;15.00;83.00;;;;;;5035380;28;20025;-76
2023/05/27 00:21:29;;;;;;;6.97;5.28;;;14.90;83.40;;;;;;5035273;28;20025;-74
2023/05/27 00:23:57;;;;;;;8.77;5.10;;;14.80;83.90;;;;;;5035604;28;20052;-74
2023/05/27 00:26:23;;;;;;;6.13;5.28;;;14.70;84.40;;;;;;5035002;28;20021;-74
2023/05/27 00:28:48;;;;;;;8.73;5.90;;;14.60;84.90;;;;;;5042222;28;20048;-74
2023/05/27 00:31:14;;;;;;;7.93;5.25;;;14.60;85.40;;;;;;5041073;28;20132;-74
2023/05/27 00:33:40;;;;;;;7.90;5.60;;;14.50;85.90;;;;;;5036703;28;20021;-74
2023/05/27 00:36:06;;;;;;;8.15;5.75;;;14.40;86.30;;;;;;5034350;28;20033;-75
2023/05/27 00:38:32;;;;;;;8.30;5.60;;;14.40;86.70;;;;;;5035289;28;20459;-75
2023/05/27 00:41:01;;;;;;;9.38;6.47;;;14.30;87.20;;;;;;5052963;28;20435;-75
2023/05/27 00:43:27;;;;;;;8.95;6.22;;;14.20;87.80;;;;;;5055039;28;20467;-75
2023/05/27 00:45:53;;;;;;;7.30;5.75;;;14.10;88.30;;;;;;5056179;28;20207;-75
2023/05/27 00:48:19;;;;;;;8.10;5.25;;;14.10;88.80;;;;;;5054165;28;20048;-75
2023/05/27 00:50:45;;;;;;;7.57;5.35;;;14.00;89.20;;;;;;5034194;28;20014;-75
2023/05/27 00:53:11;;;;;;;6.55;5.10;;;13.90;89.60;;;;;;5053366;28;20025;-75
2023/05/27 00:55:37;;;;;;;5.97;4.68;;;13.90;90.10;;;;;;5035732;28;20095;-75
2023/05/27 00:58:04;;;;;;;5.25;4.30;;;13.90;90.20;;;;;;5036457;28;20033;-75
2023/05/27 01:00:31;;;;;;;5.90;4.63;;;13.80;90.40;;;;;;5047169;28;20095;-75
2023/05/27 01:02:57;;;;;;;6.03;4.75;;;13.80;90.60;;;;;;5035763;28;20517;-74
2023/05/27 01:05:23;;;;;;;7.32;4.93;;;13.70;90.70;;;;;;5034963;28;20060;-74
2023/05/27 01:08:14;;;;;;;9.10;5.07;;;13.70;91.00;;;;;;5018697;28;20094;-74
2023/05/27 01:10:50;;;;;;;7.65;6.03;;;13.60;91.20;;;;;;5041868;28;20037;-74
2023/05/27 01:13:19;;;;;;;9.88;6.70;;;13.50;91.40;;;;;;5058496;28;20078;-74
2023/05/27 01:15:47;;;;;;;8.80;6.57;;;13.50;91.70;;;;;;5062753;28;20048;-74
2023/05/27 01:18:18;;;;;;;8.57;5.85;;;13.50;92.00;;;;;;5058026;28;20024;-74
2023/05/27 01:20:48;;;;;;;10.80;5.60;;;13.40;92.40;;;;;;5045104;28;20049;-74
2023/05/27 01:23:13;;;;;;;7.35;5.55;;;13.40;92.60;;;;;;5034082;28;20260;-75
2023/05/27 01:25:39;;;;;;;7.32;5.45;;;13.40;92.80;;;;;;5033198;28;20021;-75
2023/05/27 01:28:05;;;;;;;7.78;6.30;;;13.40;93.00;;;;;;5034935;28;20074;-75
2023/05/27 01:30:31;;;;;;;7.22;5.95;;;13.30;93.30;;;;;;5036916;28;20054;-75
2023/05/27 01:33:33;;;;;;;10.38;5.82;;;13.30;93.60;;;;;;5027216;28;20025;-74
2023/05/27 01:36:07;;;;;;;6.55;5.47;;;13.30;93.90;;;;;;4982975;28;20390;-75
2023/05/27 01:38:34;;;;;;;8.73;6.03;;;13.20;94.10;;;;;;5039877;28;20037;-75
2023/05/27 01:41:01;;;;;;;9.43;6.07;;;13.20;94.40;;;;;;5033229;28;20020;-75
2023/05/27 01:43:27;;;;;;;8.55;5.63;;;13.20;94.60;;;;;;5041298;28;20036;-75
2023/05/27 01:45:53;;;;;;;8.27;6.10;;;13.20;94.70;;;;;;5039905;28;20112;-75
2023/05/27 01:48:19;;;;;;;6.32;5.47;;;13.10;95.20;;;;;;5035722;28;20030;-75
2023/05/27 01:50:45;;;;;;;5.63;4.57;;;13.10;95.00;;;;;;5039339;28;20044;-75
2023/05/27 01:53:11;;;;;;;8.43;6.20;;;13.10;95.20;;;;;;5059066;28;20104;-75
2023/05/27 01:55:37;;;;;;;9.45;6.03;;;13.10;95.30;;;;;;5055947;28;20037;-75
2023/05/27 01:58:03;;;;;;;9.32;6.65;;;13.10;95.40;;;;;;5038520;28;20092;-74
2023/05/27 02:00:29;;;;;;;8.38;6.00;;;13.10;95.50;;;;;;5019953;28;20082;-74
2023/05/27 02:02:55;;;;;;;7.45;6.25;;;13.00;95.50;;;;;;5037137;28;20390;-75
2023/05/27 02:05:21;;;;;;;7.70;6.28;;;13.00;95.70;;;;;;5049192;28;20029;-75
2023/05/27 02:07:46;;;;;;;11.02;6.45;;;13.00;95.80;;;;;;5057809;28;20033;-75
2023/05/27 02:10:12;;;;;;;10.57;6.32;;;13.00;96.00;;;;;;5042226;28;20027;-75
2023/05/27 02:12:38;;;;;;;9.05;5.70;;;13.00;96.20;;;;;;5045195;28;20410;-73
2023/05/27 02:15:04;;;;;;;7.80;5.93;;;12.90;96.30;;;;;;5036631;28;20390;-74
2023/05/27 02:17:30;;;;;;;7.50;5.55;;;12.90;96.40;;;;;;5037583;28;20028;-74
2023/05/27 02:19:56;;;;;;;8.02;5.53;;;12.90;96.60;;;;;;5039514;28;20478;-75
2023/05/27 02:22:22;;;;;;;8.27;5.35;;;12.90;96.70;;;;;;5040609;28;20040;-75
2023/05/27 02:24:48;;;;;;;6.82;5.30;;;12.80;96.80;;;;;;5037517;28;20080;-75
2023/05/27 02:27:13;;;;;;;6.55;5.57;;;12.80;96.90;;;;;;5057673;28;20029;-75
2023/05/27 02:29:39;;;;;;;7.28;5.05;;;12.80;97.00;;;;;;5028011;28;20029;-74
2023/05/27 02:32:05;;;;;;;7.25;5.85;;;12.80;97.10;;;;;;5016003;28;20490;-74
2023/05/27 02:34:31;;;;;;;7.70;5.60;;;12.80;97.00;;;;;;5056673;28;20027;-74
2023/05/27 02:36:57;;;;;;;8.93;7.00;;;12.80;97.00;;;;;;5056655;28;20117;-74
2023/05/27 02:39:23;;;;;;;8.88;6.30;;;12.80;96.80;;;;;;5039244;28;20031;-74
2023/05/27 02:41:48;;;;;;;11.38;6.30;;;12.80;96.70;;;;;;5038809;28;20033;-74
2023/05/27 02:44:14;;;;;;;8.50;6.22;;;12.90;96.70;;;;;;5036004;28;20021;-75
2023/05/27 02:46:40;;;;;;;10.95;6.50;;;12.80;96.70;;;;;;5012501;28;20022;-75
2023/05/27 02:49:05;;;;;;;9.00;6.10;;;12.80;96.90;;;;;;5039329;28;20037;-73
2023/05/27 02:51:31;;;;;;;10.13;5.70;;;12.80;97.00;;;;;;5039372;28;20445;-75
2023/05/27 02:53:59;;;;;;;8.60;6.00;;;12.70;97.00;;;;;;5046249;28;20120;-73
2023/05/27 02:56:25;;;;;;;7.28;5.30;;;12.70;97.10;;;;;;5061165;28;20044;-74
2023/05/27 02:58:51;;;;;;;7.97;5.80;;;12.70;97.20;;;;;;5038910;28;20051;-75
2023/05/27 03:01:17;;;;;;;12.50;6.68;;;12.70;97.20;;;;;;5039184;28;20021;-74
2023/05/27 03:03:42;;;;;;;11.68;7.30;;;12.70;97.30;;;;;;5045167;28;20037;-76
2023/05/27 03:06:08;;;;;;;8.70;6.60;;;12.70;97.40;;;;;;5056115;28;20136;-74
2023/05/27 03:08:36;;;;;;;8.48;6.53;;;12.60;97.50;;;;;;5058808;28;20036;-74
2023/05/27 03:11:01;;;;;;;6.47;5.70;;;12.50;97.70;;;;;;5058130;28;20029;-74
2023/05/27 03:13:27;;;;;;;9.27;6.75;;;12.50;97.90;;;;;;5051707;28;20037;-76
2023/05/27 03:15:54;;;;;;;8.90;6.10;;;12.50;98.00;;;;;;5046061;28;20119;-74
2023/05/27 03:18:20;;;;;;;8.07;5.88;;;12.50;98.20;;;;;;5031633;28;20028;-74
2023/05/27 03:20:46;;;;;;;7.53;5.40;;;12.40;98.30;;;;;;5038587;28;20077;-74
2023/05/27 03:23:12;;;;;;;7.68;6.10;;;12.30;98.70;;;;;;5036858;28;20029;-74
2023/05/27 03:25:38;;;;;;;7.22;5.28;;;12.30;98.60;;;;;;5019082;28;20026;-74
2023/05/27 03:28:03;;;;;;;6.80;5.15;;;12.20;98.90;;;;;;5052360;28;20100;-74
2023/05/27 03:30:30;;;;;;;7.85;5.68;;;12.20;99.00;;;;;;5039629;28;20563;-74
2023/05/27 03:32:55;;;;;;;6.00;4.50;;;12.10;99.30;;;;;;5037706;28;20025;-74
2023/05/27 03:35:21;;;;;;;5.30;4.72;;;12.10;99.60;;;;;;5048486;28;20040;-74
2023/05/27 03:37:46;;;;;;;4.68;4.15;;;12.10;99.60;;;;;;5057690;28;20017;-74
2023/05/27 03:40:12;;;;;;;6.22;4.80;;;12.20;99.50;;;;;;5056829;28;20531;-75
2023/05/27 03:42:38;;;;;;;6.22;4.20;;;12.20;99.30;;;;;;5058128;28;20024;-74
2023/05/27 03:45:04;;;;;;;5.38;4.50;;;12.30;99.10;;;;;;5036853;28;20036;-74
2023/05/27 03:47:30;;;;;;;5.30;4.20;;;12.40;98.80;;;;;;5055939;28;20029;-74
2023/05/27 03:49:55;;;;;;;5.30;4.43;;;12.40;98.60;;;;;;5037479;28;20159;-75
2023/05/27 03:52:21;;;;;;;7.30;4.45;;;12.40;98.50;;;;;;5055097;28;20067;-75
2023/05/27 03:54:47;;;;;;;6.22;4.18;;;12.40;98.40;;;;;;5053908;28;20064;-75
2023/05/27 03:57:12;;;;;;;5.18;4.43;;;12.40;98.40;;;;;;5055495;28;20029;-74
2023/05/27 03:59:38;;;;;;;6.53;4.15;;;12.40;98.50;;;;;;5028781;28;20022;-75
2023/05/27 04:02:04;;;;;;;5.05;4.22;;;12.40;98.50;;;;;;5033080;28;20466;-74
2023/05/27 04:04:30;;;;;;;5.72;4.22;;;12.30;98.60;;;;;;5017236;28;20041;-75
2023/05/27 04:06:56;;;;;;;5.05;4.55;;;12.30;98.70;;;;;;5050732;28;20444;-75
2023/05/27 04:09:22;;;;;;;4.55;3.90;;;12.40;98.80;;;;;;5036739;28;20047;-74
2023/05/27 04:11:47;;;;;;;4.75;4.20;;;12.30;98.90;;;;;;5043878;28;20033;-74
2023/05/27 04:14:13;;;;;;;4.80;4.13;;;12.40;98.90;;;;;;5036695;28;20056;-74
2023/05/27 04:16:41;;;;;;;6.68;4.85;;;12.40;98.80;;;;;;5035835;28;20041;-75
2023/05/27 04:19:07;;;;;;;7.57;5.78;;;12.40;98.90;;;;;;5035722;28;20025;-74
2023/05/27 04:21:32;;;;;;;7.03;5.50;;;12.40;98.80;;;;;;5034619;28;20120;-74
2023/05/27 04:23:58;;;;;;;7.55;5.82;;;12.40;98.80;;;;;;5034017;28;20505;-75
2023/05/27 04:26:24;;;;;;;8.35;5.90;;;12.50;98.80;;;;;;5034452;28;20025;-75
2023/05/27 04:28:50;;;;;;;5.78;5.00;;;12.50;98.80;;;;;;5011188;28;20133;-74
2023/05/27 04:31:15;;;;;;;6.93;5.35;;;12.50;98.80;;;;;;5028032;28;20061;-73
2023/05/27 04:33:42;;;;;;;8.45;6.22;;;12.50;98.80;;;;;;5033282;28;20034;-74
2023/05/27 04:36:08;;;;;;;11.38;5.90;;;12.50;98.70;;;;;;5031830;28;20151;-73
2023/05/27 04:38:34;;;;;;;7.57;5.65;;;12.60;98.70;;;;;;5032627;28;20018;-74
2023/05/27 04:41:00;;;;;;;9.65;6.03;;;12.60;98.60;;;;;;5034843;28;20021;-74
2023/05/27 04:43:29;;;;;;;8.77;6.43;;;12.60;98.50;;;;;;5025721;28;20053;-74
2023/05/27 04:45:56;;;;;;;9.52;5.53;;;12.60;98.40;;;;;;5033276;28;20022;-74
2023/05/27 04:48:23;;;;;;;6.30;4.68;;;12.70;98.40;;;;;;5036098;28;20026;-74
2023/05/27 04:50:48;;;;;;;6.28;5.35;;;12.80;98.30;;;;;;5022483;28;20022;-73
2023/05/27 04:53:16;;;;;;;6.35;5.15;;;12.80;98.20;;;;;;5027455;28;20113;-74
2023/05/27 04:55:41;;;;;;;7.25;5.45;;;12.90;98.00;;;;;;5033079;28;20479;-74
2023/05/27 04:58:07;;;;;;;8.70;4.95;;;13.10;97.80;;;;;;5033731;28;20083;-73
2023/05/27 05:00:38;;;;;;;9.65;5.93;;;13.10;97.50;;;;;;5019204;28;20030;-73
2023/05/27 05:03:07;;;;;;;8.60;5.75;;;13.30;97.20;;;;;;5013552;28;20028;-74
2023/05/27 05:05:32;;;;;;;9.05;6.57;;;13.40;96.80;;;;;;5013238;28;20037;-73
2023/05/27 05:07:58;;;;;;;6.82;5.35;;;13.70;96.80;;;;;;5015551;28;20033;-74
2023/05/27 05:10:24;;;;;;;7.72;4.90;;;15.20;95.10;;;;;;5025516;28;20057;-74
2023/05/27 05:12:50;;;;;;;7.25;4.65;;;16.70;91.80;;;;;;5035147;28;20032;-73
2023/05/27 05:15:16;;;;;;;5.30;4.15;;;17.60;87.80;;;;;;5032599;28;20028;-73
2023/05/27 05:17:42;;;;;;;5.60;4.18;;;18.80;84.00;;;;;;5037848;28;20032;-73
2023/05/27 05:20:09;;;;;;;5.22;3.67;;;19.80;77.10;;;;;;5030943;28;20030;-74
2023/05/27 05:22:34;;;;;;;6.80;4.47;;;20.50;73.30;;;;;;5019393;28;20037;-73
2023/05/27 05:25:00;;;;;;;4.38;3.90;;;21.10;68.90;;;;;;5027230;28;20032;-74
2023/05/27 05:27:27;;;;;;;4.20;3.80;;;21.40;67.20;;;;;;5037538;28;20478;-73
2023/05/27 05:29:53;;;;;;;6.70;3.75;;;21.70;64.50;;;;;;5036787;28;20024;-73
2023/05/27 05:32:19;;;;;;;7.43;4.63;;;22.10;62.30;;;;;;5019739;28;20454;-75
2023/05/27 05:34:45;;;;;;;5.05;3.28;;;22.40;60.60;;;;;;5036346;28;20035;-73
2023/05/27 05:37:11;;;;;;;4.97;4.28;;;23.10;59.60;;;;;;5036755;28;20068;-73
2023/05/27 05:39:36;;;;;;;4.88;3.45;;;23.40;57.10;;;;;;5019731;28;20044;-73
2023/05/27 05:42:02;;;;;;;3.90;3.50;;;23.70;56.40;;;;;;5035850;28;20032;-74
2023/05/27 05:44:28;;;;;;;3.20;2.75;;;23.90;55.80;;;;;;5036482;28;20064;-74
2023/05/27 05:46:54;;;;;;;5.70;4.10;;;24.50;54.70;;;;;;5038893;28;20037;-74
2023/05/27 05:49:19;;;;;;;5.68;4.15;;;24.60;52.50;;;;;;5036530;28;20096;-73
2023/05/27 05:51:45;;;;;;;4.88;3.30;;;24.60;52.40;;;;;;5026699;28;20018;-73
2023/05/27 05:54:11;;;;;;;8.10;5.07;;;24.70;52.40;;;;;;5016461;28;20044;-73
2023/05/27 05:56:36;;;;;;;6.60;4.07;;;24.80;51.20;;;;;;5017312;28;20034;-74
2023/05/27 05:59:02;;;;;;;6.40;4.07;;;24.60;51.70;;;;;;5019795;28;20104;-72
2023/05/27 06:01:28;;;;;;;4.57;3.13;;;24.60;51.80;;;;;;5030847;28;20048;-74
2023/05/27 06:03:55;;;;;;;5.57;3.15;;;24.90;52.00;;;;;;5035948;28;20136;-73
2023/05/27 06:06:20;;;;;;;4.53;2.50;;;25.30;51.30;;;;;;5037087;28;20032;-75
2023/05/27 06:08:46;;;;;;;5.28;4.47;;;26.00;50.70;;;;;;5019275;28;20461;-74
2023/05/27 06:11:12;;;;;;;4.38;2.75;;;26.00;48.70;;;;;;5037202;28;20465;-74
2023/05/27 06:13:38;;;;;;;4.60;3.80;;;25.80;49.40;;;;;;5010349;28;20030;-74
2023/05/27 06:16:04;;;;;;;5.53;3.60;;;25.80;48.70;;;;;;5017241;28;20022;-74
2023/05/27 06:18:29;;;;;;;4.07;3.30;;;25.90;49.70;;;;;;5000925;28;20466;-73
2023/05/27 06:20:55;;;;;;;5.85;3.40;;;26.10;49.00;;;;;;5017956;28;20049;-74
2023/05/27 06:23:21;;;;;;;3.20;2.90;;;26.10;48.40;;;;;;5032447;28;20029;-74
2023/05/27 06:25:47;;;;;;;3.92;2.72;;;26.20;49.00;;;;;;5018549;28;20402;-73
2023/05/27 06:28:12;;;;;;;3.00;2.70;;;26.70;48.40;;;;;;5018496;28;20075;-73
2023/05/27 06:30:38;;;;;;;5.00;3.45;;;27.00;46.80;;;;;;5035224;28;20247;-73
2023/05/27 06:33:04;;;;;;;5.07;4.28;;;26.80;47.00;;;;;;5037661;28;20036;-74
2023/05/27 06:35:30;;;;;;;5.10;3.47;;;26.30;47.00;;;;;;5036472;28;20331;-73
2023/05/27 06:37:57;;;;;;;4.80;3.10;;;25.90;48.80;;;;;;5037274;28;20009;-73
2023/05/27 06:40:23;;;;;;;3.67;3.30;;;;;;;;;;5036668;28;20032;-73
2023/05/27 06:42:49;;;;;;;3.47;2.85;;;26.50;47.30;;;;;;5031528;28;20030;-74
2023/05/27 06:45:15;;;;;;;3.40;2.47;;;27.20;47.20;;;;;;5015341;28;20025;-74
2023/05/27 06:47:40;;;;;;;3.58;2.95;;;27.40;46.90;;;;;;5000854;28;20092;-74
2023/05/27 06:50:06;;;;;;;5.63;3.40;;;27.40;45.30;;;;;;5016475;28;20058;-74
2023/05/27 06:52:32;;;;;;;9.82;4.38;;;27.00;44.90;;;;;;5016379;28;20350;-73
2023/05/27 06:54:58;;;;;;;8.02;3.78;;;26.40;44.80;;;;;;5026504;28;20453;-73
2023/05/27 06:57:23;;;;;;;6.30;3.53;;;25.90;46.10;;;;;;5049041;28;20132;-73
2023/05/27 06:59:49;;;;;;;5.88;3.25;;;25.50;46.80;;;;;;5033708;28;20037;-73
2023/05/27 07:02:14;;;;;;;6.25;3.67;;;25.80;48.00;;;;;;5020419;28;20113;-74
2023/05/27 07:04:40;;;;;;;7.38;3.25;;;26.10;46.40;;;;;;5023102;28;20116;-74
2023/05/27 07:07:06;;;;;;;5.07;3.38;;;26.00;46.50;;;;;;5016838;28;20022;-73
2023/05/27 07:09:32;;;;;;;7.03;3.70;;;;;;;;;;5017456;28;20026;-72
2023/05/27 07:11:57;;;;;;;3.97;3.28;;;24.70;45.70;;;;;;5015060;28;20045;-73
2023/05/27 07:14:23;;;;;;;7.30;3.92;;;22.80;49.60;;;;;;5025508;28;20237;-73
2023/05/27 07:16:49;;;;;;;9.55;3.78;;;21.20;52.60;;;;;;5036509;28;20021;-73
2023/05/27 07:19:14;;;;;;;10.77;4.15;;;19.90;55.40;;;;;;5037002;28;20017;-75
2023/05/27 07:21:40;;;;;;;6.32;3.08;;;19.10;57.90;;;;;;5035120;28;20402;-74
2023/05/27 07:24:06;;;;;;;8.90;4.38;;;18.60;59.50;;;;;;5034201;28;20030;-74
2023/05/27 07:26:32;;;;;;;9.70;4.00;;;18.30;60.10;;;;;;5035711;28;20274;-73
2023/05/27 07:28:59;;;;;;;7.35;3.80;;;18.10;60.90;;;;;;5036025;28;20659;-73
2023/05/27 07:31:26;;;;;;;8.23;3.85;;;18.00;61.80;;;;;;5035555;28;20497;-74
2023/05/27 07:33:52;;;;;;;5.82;3.55;;;18.00;62.30;;;;;;5035128;28;20298;-74
2023/05/27 07:36:17;;;;;;;11.00;3.95;;;18.10;62.40;;;;;;5034611;28;20442;-73
2023/05/27 07:38:43;;;;;;;9.02;3.88;;;18.20;62.40;;;;;;5035371;28;20112;-74
2023/05/27 07:41:09;;;;;;;9.95;3.75;;;18.10;62.20;;;;;;5036244;28;20075;-74
2023/05/27 07:43:35;;;;;;;9.02;3.75;;;18.10;62.30;;;;;;5036304;28;20033;-72
2023/05/27 07:46:00;;;;;;;11.90;4.40;;;18.10;62.30;;;;;;5016725;28;20036;-72
2023/05/27 07:48:28;;;;;;;6.85;3.50;;;18.10;62.80;;;;;;5018958;28;20109;-73
2023/05/27 07:50:54;;;;;;;11.45;3.65;;;18.20;63.00;;;;;;5017901;28;20026;-74
2023/05/27 07:53:19;;;;;;;10.02;3.83;;;18.30;62.90;;;;;;4998356;28;20505;-73
2023/05/27 07:55:45;;;;;;;6.60;3.30;;;18.30;62.70;;;;;;5024858;28;20051;-72
2023/05/27 07:58:11;;;;;;;8.02;3.78;;;18.40;62.80;;;;;;5033721;28;20025;-74
2023/05/27 08:00:36;;;;;;;10.65;4.57;;;18.40;62.20;;;;;;5028375;28;20505;-73
2023/05/27 08:03:02;;;;;;;9.25;4.20;;;18.40;62.50;;;;;;5035239;28;20014;-74
2023/05/27 08:05:27;;;;;;;10.82;4.57;;;18.40;62.70;;;;;;5013684;28;20064;-73
2023/05/27 08:07:53;;;;;;;7.15;3.63;;;18.30;62.60;;;;;;4997970;28;20040;-73
2023/05/27 08:10:19;;;;;;;10.75;4.40;;;18.40;63.30;;;;;;4996951;28;20037;-73
2023/05/27 08:12:44;;;;;;;4.72;3.15;;;18.50;63.00;;;;;;4997655;28;20069;-74
2023/05/27 08:15:10;;;;;;;4.60;3.35;;;18.60;63.10;;;;;;5014472;28;20224;-73
2023/05/27 08:17:36;;;;;;;9.35;3.95;;;18.80;62.90;;;;;;5034018;28;20389;-73
2023/05/27 08:20:01;;;;;;;10.30;4.57;;;19.00;61.80;;;;;;5035170;28;20105;-73
2023/05/27 08:22:27;;;;;;;10.00;4.80;;;19.00;61.70;;;;;;5035051;28;20037;-73
2023/05/27 08:24:54;;;;;;;9.30;3.60;;;19.00;61.50;;;;;;5034857;28;20056;-74
2023/05/27 08:27:21;;;;;;;6.63;3.60;;;19.00;62.10;;;;;;5026839;28;20025;-73
2023/05/27 08:29:46;;;;;;;8.13;4.05;;;19.10;62.20;;;;;;5035171;28;20057;-74
2023/05/27 08:32:14;;;;;;;8.85;3.55;;;19.20;62.00;;;;;;5036689;28;20018;-74
2023/05/27 08:34:41;;;;;;;7.28;4.20;;;19.30;61.90;;;;;;5035204;28;20029;-73
2023/05/27 08:37:07;;;;;;;13.30;5.22;;;19.40;61.60;;;;;;5035463;28;20143;-73
2023/05/27 08:39:33;;;;;;;12.93;4.30;;;19.40;61.00;;;;;;5017277;28;20049;-73
2023/05/27 08:42:00;;;;;;;10.90;4.57;;;19.40;61.20;;;;;;5033371;28;20037;-74
2023/05/27 08:44:26;;;;;;;14.10;5.50;;;19.40;61.40;;;;;;5035563;28;20048;-73
2023/05/27 08:46:51;;;;;;;6.63;4.20;;;19.50;60.90;;;;;;5012802;28;20018;-74
2023/05/27 08:49:18;;;;;;;11.60;4.63;;;19.70;61.60;;;;;;5017286;28;20085;-74
2023/05/27 08:51:45;;;;;;;9.13;4.28;;;19.90;61.30;;;;;;5016281;28;20109;-74
2023/05/27 08:54:11;;;;;;;10.52;4.35;;;19.90;61.10;;;;;;5001154;28;20128;-74
2023/05/27 08:56:39;;;;;;;11.85;4.40;;;19.90;61.10;;;;;;5019704;28;20048;-74
2023/05/27 08:59:05;;;;;;;8.10;4.20;;;20.00;61.20;;;;;;5023633;28;20021;-74
2023/05/27 09:01:32;;;;;;;10.95;4.82;;;20.10;61.40;;;;;;5040013;28;20029;-73
2023/05/27 09:03:58;;;;;;;8.57;4.30;;;20.20;60.90;;;;;;5021029;28;20053;-73
2023/05/27 09:06:24;;;;;;;10.27;4.97;;;20.20;60.30;;;;;;5021368;28;20021;-73
2023/05/27 09:08:50;;;;;;;8.73;4.07;;;20.30;60.10;;;;;;5019829;28;20282;-75
2023/05/27 09:11:23;;;;;;;9.15;3.85;;;20.40;60.40;;;;;;5018952;28;20551;-73
2023/05/27 09:13:49;;;;;;;13.60;4.95;;;20.70;60.00;;;;;;5020276;28;20433;-73
2023/05/27 09:16:20;;;;;;;9.93;4.75;;;20.90;58.80;;;;;;5019295;28;20060;-73
2023/05/27 09:18:46;;;;;;;10.40;4.67;;;20.80;59.20;;;;;;5020900;28;20022;-74
2023/05/27 09:21:11;;;;;;;8.00;4.20;;;20.80;59.90;;;;;;5019489;28;20030;-74
2023/05/27 09:23:40;;;;;;;10.15;4.60;;;20.80;60.00;;;;;;5019180;28;20022;-74
2023/05/27 09:26:10;;;;;;;9.50;4.78;;;20.90;59.70;;;;;;5019100;28;20021;-73
2023/05/27 09:28:37;;;;;;;8.48;4.70;;;21.00;59.30;;;;;;5026929;28;20424;-73
2023/05/27 09:31:07;;;;;;;7.18;4.40;;;20.90;59.10;;;;;;5038709;28;20389;-73
2023/05/27 09:33:35;;;;;;;9.63;4.82;;;21.00;59.00;;;;;;5038852;28;20021;-74
2023/05/27 09:36:04;;;;;;;10.57;5.38;;;21.00;58.40;;;;;;5022064;28;20494;-73
2023/05/27 09:38:32;;;;;;;10.00;5.05;;;20.90;58.80;;;;;;5036876;28;20475;-74
2023/05/27 09:40:58;;;;;;;14.38;5.93;;;21.00;59.30;;;;;;5038911;28;20036;-74
2023/05/27 09:43:28;;;;;;;12.02;5.10;;;20.90;58.90;;;;;;5021129;28;20060;-74
2023/05/27 09:46:10;;;;;;;15.52;6.53;;;20.80;59.30;;;;;;5019818;28;20161;-74
2023/05/27 09:48:37;;;;;;;9.95;5.10;;;20.90;59.20;;;;;;5023681;28;20034;-75
2023/05/27 09:51:03;;;;;;;16.45;5.93;;;20.80;59.20;;;;;;5019027;28;20102;-73
2023/05/27 09:53:30;;;;;;;13.40;5.55;;;20.80;59.30;;;;;;5018983;28;20026;-74
2023/05/27 09:55:57;;;;;;;11.20;5.15;;;20.90;59.20;;;;;;5000780;28;20064;-74
2023/05/27 09:58:24;;;;;;;9.50;4.75;;;20.80;59.20;;;;;;5022399;28;20067;-74
2023/05/27 10:00:50;;;;;;;7.70;4.63;;;21.00;60.10;;;;;;5038164;28;20101;-73
2023/05/27 10:03:23;;;;;;;9.13;4.28;;;21.30;58.70;;;;;;5039342;28;20088;-72
2023/05/27 10:05:50;;;;;;;9.98;4.68;;;21.50;58.30;;;;;;5038866;28;20026;-73
2023/05/27 10:08:17;;;;;;;18.27;5.72;;;21.70;57.50;;;;;;5037335;28;20025;-75
2023/05/27 10:10:43;;;;;;;8.18;4.97;;;21.70;56.80;;;;;;5039012;28;20056;-73
2023/05/27 10:13:09;;;;;;;7.32;4.63;;;21.60;57.50;;;;;;5037116;28;20039;-74
2023/05/27 10:15:35;;;;;;;9.77;5.53;;;21.70;57.30;;;;;;5038642;28;20053;-74
2023/05/27 10:18:09;;;;;;;10.98;4.85;;;21.80;56.10;;;;;;5038047;28;20045;-73
2023/05/27 10:20:38;;;;;;;7.30;4.28;;;21.80;56.20;;;;;;5038733;28;20026;-74
2023/05/27 10:23:21;;;;;;;5.82;3.70;;;21.90;57.00;;;;;;5037691;28;20180;-75
2023/05/27 10:26:01;;;;;;;10.68;4.93;;;22.00;55.90;;;;;;5037806;28;20029;-74
2023/05/27 10:28:39;;;;;;;10.20;4.78;;;22.10;54.80;;;;;;5031954;28;20029;-74
2023/05/27 10:31:14;;;;;;;5.78;3.45;;;22.10;55.20;;;;;;5030290;28;20030;-75
2023/05/27 10:33:46;;;;;;;6.10;4.38;;;22.30;55.60;;;;;;5038556;28;20352;-75
2023/05/27 10:36:21;;;;;;;6.22;3.75;;;22.50;55.00;;;;;;5037636;28;20087;-74
2023/05/27 10:38:59;;;;;;;7.13;4.32;;;22.80;54.40;;;;;;5030496;28;20378;-74
2023/05/27 10:41:25;;;;;;;10.98;4.32;;;22.90;52.70;;;;;;5017789;28;20026;-74
2023/05/27 10:43:58;;;;;;;6.43;4.30;;;22.80;51.70;;;;;;5017783;28;20026;-73
2023/05/27 10:46:24;;;;;;;10.65;4.53;;;22.60;51.80;;;;;;5017492;28;20018;-75
2023/05/27 10:48:50;;;;;;;8.50;4.85;;;22.60;51.30;;;;;;5031780;28;20037;-74
2023/05/27 10:51:16;;;;;;;7.20;4.80;;;22.80;50.20;;;;;;5037795;28;20033;-74
2023/05/27 10:53:41;;;;;;;8.00;4.15;;;22.80;50.60;;;;;;5037128;28;20074;-74
2023/05/27 10:56:10;;;;;;;9.77;5.63;;;22.60;51.80;;;;;;5036648;28;20089;-74
2023/05/27 10:58:37;;;;;;;8.23;4.55;;;22.60;51.80;;;;;;5036705;28;20030;-73
2023/05/27 11:01:16;;;;;;;6.97;4.75;;;22.50;52.30;;;;;;5028962;28;20041;-73
2023/05/27 11:03:45;;;;;;;6.72;3.72;;;22.60;52.70;;;;;;5036449;28;20017;-73
2023/05/27 11:06:12;;;;;;;5.90;3.72;;;22.90;52.60;;;;;;5018602;28;20155;-73
2023/05/27 11:08:38;;;;;;;7.80;4.47;;;23.20;51.90;;;;;;5010739;28;20022;-74
2023/05/27 11:11:11;;;;;;;7.80;4.40;;;23.40;51.40;;;;;;5018680;28;20021;-74
2023/05/27 11:13:43;;;;;;;9.35;4.47;;;23.40;51.60;;;;;;5037169;28;20071;-74
2023/05/27 11:16:10;;;;;;;9.80;4.68;;;23.60;51.10;;;;;;5034703;28;20037;-74
2023/05/27 11:18:37;;;;;;;7.30;4.60;;;23.60;50.40;;;;;;5016316;28;20033;-74
2023/05/27 11:21:04;;;;;;;6.60;4.30;;;23.60;50.70;;;;;;5015323;28;20026;-74
2023/05/27 11:23:42;;;;;;;8.40;4.47;;;23.70;50.20;;;;;;4998418;28;20018;-73
2023/05/27 11:26:17;;;;;;;7.85;4.55;;;23.60;51.00;;;;;;5016483;28;20026;-75
2023/05/27 11:28:50;;;;;;;7.45;4.20;;;;;;;;;;5017153;28;20037;-74
2023/05/27 11:31:16;;;;;;;6.75;4.20;;;23.60;49.70;;;;;;5016628;28;20034;-74
2023/05/27 11:33:43;;;;;;;6.90;4.18;;;23.70;50.20;;;;;;5000173;28;20391;-74
2023/05/27 11:36:12;;;;;;;6.20;3.90;;;23.70;50.40;;;;;;5001395;28;20089;-73
2023/05/27 11:38:57;;;;;;;5.90;4.10;;;23.80;50.00;;;;;;5036632;28;20293;-74
2023/05/27 11:41:29;;;;;;;7.57;4.72;;;23.70;48.90;;;;;;5037809;28;20475;-74
2023/05/27 11:43:56;;;;;;;9.02;5.07;;;23.60;48.60;;;;;;5037200;28;20033;-74
2023/05/27 11:46:23;;;;;;;5.38;3.88;;;23.40;48.40;;;;;;5019529;28;20040;-74
2023/05/27 11:48:48;;;;;;;6.90;3.83;;;23.50;48.90;;;;;;5018177;28;20045;-75
2023/05/27 11:51:14;;;;;;;7.10;3.95;;;23.70;48.10;;;;;;5017893;28;20030;-74
2023/05/27 11:53:44;;;;;;;8.35;4.50;;;23.70;47.80;;;;;;5018447;28;20114;-73
2023/05/27 11:56:10;;;;;;;8.18;4.47;;;23.70;48.20;;;;;;5015470;28;20038;-74
2023/05/27 11:58:36;;;;;;;7.97;4.90;;;23.60;48.60;;;;;;5031564;28;20108;-74
2023/05/27 12:01:04;;;;;;;6.68;4.18;;;23.60;47.50;;;;;;5000080;28;20532;-75
2023/05/27 12:03:29;;;;;;;7.03;4.32;;;23.60;47.40;;;;;;5021614;28;20176;-73
2023/05/27 12:05:55;;;;;;;8.70;4.38;;;23.60;47.70;;;;;;5033669;28;20030;-74
2023/05/27 12:08:21;;;;;;;7.53;4.10;;;23.70;47.70;;;;;;5027448;28;20036;-74
2023/05/27 12:10:50;;;;;;;10.02;4.03;;;23.70;48.00;;;;;;5036607;28;20543;-73
2023/05/27 12:13:15;;;;;;;8.07;4.05;;;23.70;47.50;;;;;;5018431;28;20025;-73
2023/05/27 12:15:41;;;;;;;9.18;3.95;;;23.60;47.30;;;;;;5018083;28;20021;-73
2023/05/27 12:18:07;;;;;;;5.75;3.70;;;23.70;47.10;;;;;;5036131;28;20032;-75
2023/05/27 12:20:33;;;;;;;4.28;3.40;;;;;;;;;;5036481;28;20028;-73
2023/05/27 12:22:59;;;;;;;4.90;3.53;;;24.00;46.20;;;;;;5039007;28;20025;-74
2023/05/27 12:25:25;;;;;;;5.22;3.22;;;24.30;46.10;;;;;;5041688;28;20025;-75
2023/05/27 12:27:51;;;;;;;5.65;3.80;;;24.50;45.70;;;;;;5039633;28;20021;-75
2023/05/27 12:30:16;;;;;;;7.22;4.38;;;24.60;45.00;;;;;;5022242;28;20493;-75
2023/05/27 12:32:42;;;;;;;6.25;3.60;;;24.50;44.70;;;;;;5004321;28;20037;-74
2023/05/27 12:35:08;;;;;;;5.10;3.60;;;24.60;45.20;;;;;;5020032;28;20045;-74
2023/05/27 12:37:34;;;;;;;9.50;4.68;;;24.50;44.50;;;;;;5019345;28;20022;-73
2023/05/27 12:39:59;;;;;;;10.32;4.18;;;24.50;44.80;;;;;;5030918;28;20021;-75
2023/05/27 12:42:25;;;;;;;5.25;3.80;;;24.20;45.00;;;;;;5036116;28;20030;-75
2023/05/27 12:44:51;;;;;;;6.38;4.13;;;24.10;45.80;;;;;;5018328;28;20034;-74